Detalii statie RANDUNICA PREST ANDRID [00001984]

Toti senzorii

Date Temperatura solului [C]Precipitatii [mm]Voltaj baterie [mV]Leaf Wetness [Min]HC Air temperature [C]HC Relative humidity [%]Punctul de roua [C]
medieminmaxsumaultimatimpmedieminmaxmediemediemin
2018-06-20 10:00:00 23.3 23 23.9 0 7088 27.24 26.13 28 0 0 0
2018-06-20 11:00:00 24.2 23.7 24.7 0 7274 28.88 28.23 29.39 0 0 0
2018-06-20 12:00:00 25.1 24.8 25.5 0 7264 30.68 29.75 31.71 0 0 0
2018-06-20 13:00:00 26.1 25.5 26.8 0 7264 31.46 30.31 32.43 0 0 0
2018-06-20 14:00:00 27.4 26.7 27.9 0 7254 32.02 30.88 33.11 0 0 0
2018-06-20 15:00:00 28.5 28 28.9 0 7264 32.81 30.58 34.11 0 0 0
2018-06-20 16:00:00 29.3 29 29.7 0 7264 31.69 30.46 32.64 0 0 0
2018-06-20 17:00:00 29.8 29.7 29.9 0 7264 31.28 30.69 32.08 0 0 0
2018-06-20 18:00:00 29.7 29.6 29.9 0 7274 31.78 31.35 32.73 0 0 0
2018-06-20 19:00:00 29.4 29.3 29.7 0 7254 31.02 30.05 31.94 0 0 0
2018-06-20 20:00:00 29 28.8 29.2 0 7030 28.4 26.79 29.88 0 0 0
2018-06-20 21:00:00 28.5 28.2 28.7 0 6962 24.97 23.67 26.47 0 0 0
2018-06-20 22:00:00 27.9 27.6 28.2 0 6932 22.66 22 23.55 0 0 0
2018-06-20 23:00:00 27.2 27 27.6 0 6894 21.85 21.48 22.29 0 0 0
2018-06-21 00:00:00 26.6 26.4 26.9 0 6884 21.29 20.89 21.68 0 0 0
2018-06-21 01:00:00 26.1 25.9 26.3 0 6874 20.66 20.02 21.09 0 0 0
2018-06-21 02:00:00 25.6 25.5 25.9 0 6874 19.87 19.62 20.14 0 0 0
2018-06-21 03:00:00 25.1 25 25.3 0 6874 19.13 18.32 19.89 0 0 0
2018-06-21 04:00:00 24.7 24.5 24.9 0 6864 17.99 17.69 18.28 0 0 0
2018-06-21 05:00:00 24.3 24.3 24.5 0 6854 17.88 17.52 18.16 0 0 0
2018-06-21 06:00:00 24 23.8 24.2 0 6894 18.22 17.7 19.05 0 0 0
2018-06-21 07:00:00 23.7 23.5 23.9 0 6932 20.84 19.56 23.46 0 0 0
2018-06-21 08:00:00 23.5 23.4 23.7 0 6952 24.96 23.69 25.87 0 0 0
2018-06-21 09:00:00 23.6 23.5 23.8 0 6982 26.17 25.07 27.09 0 0 0
2018-06-21 10:00:00 24.1 23.9 24.5 0 7128 28.17 27.07 29.23 0 0 0
2018-06-21 11:00:00 25 24.6 25.5 0 7264 30.17 28.7 31.74 0 0 0
2018-06-21 12:00:00 25.7 25.4 26.1 0 7264 31.07 30.39 32.02 0 0 0
2018-06-21 13:00:00 26.6 26.2 27.3 0 7264 32.51 31.42 34.04 0 0 0
2018-06-21 14:00:00 27.7 27.1 28.2 0 7176 31.91 30.37 33.36 0 0 0
2018-06-21 15:00:00 28.4 28.2 28.7 0 7264 28.98 28.85 29.56 0 0 0
2018-06-21 16:00:00 28.5 28.4 28.7 0 7254 29.63 28.98 30.64 0 0 0
2018-06-21 17:00:00 28.4 28.3 28.5 0 7264 29.83 28.78 30.31 0 0 0
2018-06-21 18:00:00 28.2 28.1 28.5 0 7264 27.47 26.92 28.44 0 0 0
2018-06-21 19:00:00 28 27.8 28.3 0 7088 26.38 25.86 26.87 0 0 0
2018-06-21 20:00:00 27.6 27.4 27.8 0 6962 25.23 24.53 25.78 0 0 0
2018-06-21 21:00:00 27.1 26.9 27.5 0 6904 23.78 23.21 24.43 0 0 0
2018-06-21 22:00:00 26.6 26.4 26.9 0 6904 22.85 22.47 23.21 0 0 0
2018-06-21 23:00:00 26.2 26 26.5 0 6874 21.56 20.61 22.47 0 0 0
2018-06-22 00:00:00 25.8 25.6 26 0 6874 21.32 20.47 21.71 0 0 0
2018-06-22 01:00:00 25.3 25.2 25.5 0 6864 20.53 19.66 21.53 0 0 0
2018-06-22 02:00:00 24.9 24.8 25.3 0 6864 19.88 19.68 20.32 0 0 0
2018-06-22 03:00:00 24.6 24.5 24.9 0 6844 19.73 19.62 19.88 0 0 0
2018-06-22 04:00:00 24.3 24.2 24.5 0 6834 19.66 19.44 20.01 0 0 0
2018-06-22 05:00:00 24 23.9 24.3 0 6844 20.02 19.72 20.33 0 0 0
2018-06-22 06:00:00 23.8 23.7 24.1 0 6844 18.88 17.71 21.05 0 0 0
2018-06-22 07:00:00 23.7 23.6 23.8 1 6854 16.96 15.87 17.61 0 0 0